createdAt,value
2023-03-21T00:00:23.236Z,29.01
2023-03-21T00:04:23.320Z,28.99
2023-03-21T00:08:23.228Z,29.00
2023-03-21T00:12:23.231Z,29.01
2023-03-21T00:16:25.937Z,29.02
2023-03-21T00:20:24.221Z,28.99
2023-03-21T00:24:23.225Z,29.01
2023-03-21T00:28:23.142Z,29.01
2023-03-21T00:32:23.090Z,29.03
2023-03-21T00:36:23.126Z,29.00
2023-03-21T00:40:29.495Z,29.01
2023-03-21T00:44:23.997Z,29.04
2023-03-21T00:48:22.991Z,29.00
2023-03-21T00:52:38.051Z,29.02
2023-03-21T00:56:23.924Z,29.04
2023-03-21T01:00:22.863Z,29.07
2023-03-21T01:04:22.873Z,29.05
2023-03-21T01:08:29.316Z,29.06
2023-03-21T01:12:23.740Z,29.08
2023-03-21T01:16:22.796Z,29.08
2023-03-21T01:20:22.677Z,29.09
2023-03-21T01:24:22.700Z,29.05
2023-03-21T01:28:22.757Z,29.06
2023-03-21T01:32:22.607Z,29.10
2023-03-21T01:36:23.883Z,29.10
2023-03-21T01:40:22.658Z,29.10
2023-03-21T01:44:22.710Z,29.12
2023-03-21T01:48:22.789Z,29.10
2023-03-21T01:52:35.274Z,29.10
2023-03-21T01:56:23.836Z,29.12
2023-03-21T02:00:22.795Z,29.12
2023-03-21T02:04:22.768Z,29.15
2023-03-21T02:08:30.567Z,29.15
2023-03-21T02:12:23.706Z,29.14
2023-03-21T02:16:22.667Z,29.15
2023-03-21T02:20:22.622Z,29.11
2023-03-21T02:24:22.610Z,29.12
2023-03-21T02:28:22.527Z,29.15
2023-03-21T02:32:34.906Z,29.20
2023-03-21T02:36:23.615Z,29.18
2023-03-21T02:40:22.551Z,29.22
2023-03-21T02:44:22.477Z,29.19
2023-03-21T02:48:29.262Z,29.21
2023-03-21T02:52:37.378Z,29.16
2023-03-21T02:56:23.418Z,29.19
2023-03-21T03:00:22.384Z,29.22
2023-03-21T03:04:22.364Z,29.23
2023-03-21T03:08:32.408Z,29.22
2023-03-21T03:12:23.230Z,29.24
2023-03-21T03:16:22.187Z,29.23
2023-03-21T03:20:22.189Z,29.24
2023-03-21T03:24:22.104Z,29.22
2023-03-21T03:28:22.114Z,29.24
2023-03-21T03:32:22.240Z,29.21
2023-03-21T03:36:31.531Z,29.24
2023-03-21T03:40:23.308Z,29.23
2023-03-21T03:44:22.312Z,29.20
2023-03-21T03:48:22.306Z,29.17
2023-03-21T03:52:22.273Z,29.23
2023-03-21T03:56:22.331Z,29.20
2023-03-21T04:00:22.498Z,29.21
2023-03-21T04:04:22.690Z,29.24
2023-03-21T04:08:22.786Z,29.26
2023-03-21T04:12:22.865Z,29.27
2023-03-21T04:16:23.106Z,29.23
2023-03-21T04:20:35.602Z,29.25
2023-03-21T04:24:24.158Z,29.28
2023-03-21T04:28:23.079Z,29.27
2023-03-21T04:32:23.069Z,29.26
2023-03-21T04:36:23.098Z,29.27
2023-03-21T04:40:23.224Z,29.25
2023-03-21T04:44:23.392Z,29.24
2023-03-21T04:48:23.601Z,29.25
2023-03-21T04:52:25.324Z,29.22
2023-03-21T04:56:23.877Z,29.24
2023-03-21T05:00:24.063Z,29.23
2023-03-21T05:04:24.206Z,29.12
2023-03-21T05:08:24.336Z,29.01
2023-03-21T05:12:24.504Z,28.86
2023-03-21T05:16:24.677Z,28.76
2023-03-21T05:20:24.765Z,28.73
2023-03-21T05:24:24.930Z,28.68
2023-03-21T05:28:25.082Z,28.61
2023-03-21T05:32:25.321Z,28.63
2023-03-21T05:36:25.418Z,28.69
2023-03-21T05:40:25.607Z,28.71
2023-03-21T05:44:25.752Z,28.73
2023-03-21T05:48:25.919Z,28.74
2023-03-21T05:52:26.100Z,28.75
2023-03-21T05:56:26.305Z,28.90
2023-03-21T06:00:26.328Z,29.09
2023-03-21T06:04:26.326Z,28.64
2023-03-21T06:08:26.458Z,29.16
2023-03-21T06:12:26.640Z,29.84
2023-03-21T06:16:26.775Z,29.76
2023-03-21T06:20:26.744Z,29.21
2023-03-21T06:24:26.739Z,29.90
2023-03-21T06:28:26.727Z,30.00
2023-03-21T06:32:26.684Z,30.00
2023-03-21T06:36:26.611Z,30.53
2023-03-21T06:40:26.637Z,31.14
2023-03-21T06:44:26.612Z,30.75
2023-03-21T06:48:26.612Z,31.19
2023-03-21T06:52:26.567Z,31.38
2023-03-21T06:56:26.512Z,31.48
2023-03-21T07:00:26.449Z,31.62
2023-03-21T07:04:26.385Z,31.18
2023-03-21T07:08:26.365Z,31.41
2023-03-21T07:12:26.319Z,31.60
2023-03-21T07:16:26.382Z,31.65
2023-03-21T07:20:26.344Z,31.79
2023-03-21T07:24:26.220Z,31.87
2023-03-21T07:28:26.227Z,31.92
2023-03-21T07:32:26.203Z,31.97
2023-03-21T07:36:26.189Z,31.98
2023-03-21T07:40:26.169Z,32.16
2023-03-21T07:44:26.249Z,30.46
2023-03-21T07:48:26.227Z,30.93
2023-03-21T07:52:26.130Z,30.99
2023-03-21T07:56:26.325Z,31.65
2023-03-21T08:00:26.104Z,32.14
2023-03-21T08:04:26.223Z,32.09
2023-03-21T08:08:25.997Z,32.21
2023-03-21T08:12:25.970Z,32.27
2023-03-21T08:16:26.017Z,32.38
2023-03-21T08:20:25.927Z,32.26
2023-03-21T08:24:26.306Z,32.06
2023-03-21T08:28:25.809Z,31.83
2023-03-21T08:32:26.246Z,31.94
2023-03-21T08:36:26.337Z,31.66
2023-03-21T08:40:26.354Z,31.49
2023-03-21T08:44:25.758Z,31.54
2023-03-21T08:48:25.767Z,31.52
2023-03-21T08:52:25.697Z,31.48
2023-03-21T08:56:25.696Z,31.44
2023-03-21T09:00:25.693Z,31.18
2023-03-21T09:04:25.732Z,31.15
2023-03-21T09:08:25.641Z,31.24
2023-03-21T09:12:25.564Z,31.24
2023-03-21T09:16:25.784Z,31.17
2023-03-21T09:20:25.906Z,31.25
2023-03-21T09:24:26.278Z,31.07
2023-03-21T09:28:26.101Z,31.00
2023-03-21T09:32:26.201Z,30.54
2023-03-21T09:36:26.426Z,29.55
2023-03-21T09:40:26.609Z,28.90
2023-03-21T09:44:29.973Z,29.91
2023-03-21T09:48:26.621Z,31.17
2023-03-21T09:52:26.812Z,31.30
2023-03-21T09:56:26.479Z,32.50
2023-03-21T10:00:26.408Z,32.05
2023-03-21T10:04:26.398Z,32.30
2023-03-21T10:08:26.370Z,32.14
2023-03-21T10:12:26.801Z,32.52
2023-03-21T10:16:26.349Z,31.65
2023-03-21T10:20:26.217Z,32.26
2023-03-21T10:24:26.826Z,32.08
2023-03-21T10:28:26.285Z,32.09
2023-03-21T10:32:26.304Z,31.87
2023-03-21T10:36:26.129Z,31.75
2023-03-21T10:40:26.322Z,31.48
2023-03-21T10:44:26.345Z,31.14
2023-03-21T10:48:26.140Z,30.81
2023-03-21T10:52:25.928Z,30.70
2023-03-21T10:56:25.913Z,30.35
2023-03-21T11:00:25.885Z,30.19
2023-03-21T11:04:25.865Z,30.09
2023-03-21T11:08:25.834Z,29.97
2023-03-21T11:12:25.759Z,29.79
2023-03-21T11:16:25.813Z,29.71
2023-03-21T11:20:25.709Z,29.76
2023-03-21T11:24:25.850Z,29.70
2023-03-21T11:28:25.692Z,29.62
2023-03-21T11:32:25.605Z,29.61
2023-03-21T11:36:25.639Z,29.57
2023-03-21T11:40:25.601Z,29.54
2023-03-21T11:44:25.523Z,29.54
2023-03-21T11:48:25.593Z,29.49
2023-03-21T11:52:25.424Z,29.49
2023-03-21T11:56:25.455Z,29.46
2023-03-21T12:00:25.429Z,29.44
2023-03-21T12:04:25.515Z,29.39
2023-03-21T12:08:25.587Z,29.33
2023-03-21T12:12:38.023Z,29.32
2023-03-21T12:16:26.657Z,29.27
2023-03-21T12:20:25.825Z,29.25
2023-03-21T12:24:25.471Z,29.18
2023-03-21T12:28:32.696Z,29.17
2023-03-21T12:32:26.470Z,29.15
2023-03-21T12:36:25.486Z,29.12
2023-03-21T12:40:25.401Z,29.12
2023-03-21T12:44:25.321Z,29.15
2023-03-21T12:48:25.373Z,29.10
2023-03-21T12:52:25.463Z,29.07
2023-03-21T12:56:25.452Z,29.10
2023-03-21T13:00:25.472Z,29.03
2023-03-21T13:04:25.365Z,29.06
2023-03-21T13:08:25.445Z,29.00
2023-03-21T13:12:25.335Z,29.00
2023-03-21T13:16:25.359Z,29.04
2023-03-21T13:20:25.261Z,29.02
2023-03-21T13:24:25.291Z,28.95
2023-03-21T13:28:25.214Z,28.93
2023-03-21T13:32:25.195Z,28.95
2023-03-21T13:36:25.090Z,28.89
2023-03-21T13:40:25.149Z,28.89
2023-03-21T13:44:25.063Z,28.83
2023-03-21T13:48:25.153Z,28.85
2023-03-21T13:52:24.942Z,28.80
2023-03-21T13:56:25.016Z,28.78
2023-03-21T14:00:24.925Z,28.73
2023-03-21T14:04:29.175Z,28.73
2023-03-21T14:08:36.795Z,28.70
2023-03-21T14:12:25.832Z,28.65
2023-03-21T14:16:24.935Z,28.62
2023-03-21T14:20:24.797Z,28.59
2023-03-21T14:24:24.640Z,28.58
2023-03-21T14:28:24.737Z,28.58
2023-03-21T14:32:24.607Z,28.59
2023-03-21T14:36:24.651Z,28.60
2023-03-21T14:40:24.552Z,28.61
2023-03-21T14:44:24.489Z,28.60
2023-03-21T14:48:24.477Z,28.61
2023-03-21T14:52:24.433Z,28.60
2023-03-21T14:56:24.420Z,28.61
2023-03-21T15:00:24.433Z,28.64
2023-03-21T15:04:24.315Z,28.60
2023-03-21T15:08:24.291Z,28.60
2023-03-21T15:12:24.229Z,28.57
2023-03-21T15:16:24.299Z,28.56
2023-03-21T15:20:24.175Z,28.56
2023-03-21T15:24:24.194Z,28.54
2023-03-21T15:28:24.164Z,28.53
2023-03-21T15:32:24.222Z,28.54
2023-03-21T15:36:24.255Z,28.54
2023-03-21T15:40:24.254Z,28.53
2023-03-21T15:44:24.332Z,28.54
2023-03-21T15:48:24.513Z,28.55
2023-03-21T15:52:24.441Z,28.56
2023-03-21T15:56:24.520Z,28.56
2023-03-21T16:00:24.590Z,28.60
2023-03-21T16:04:24.722Z,28.57
2023-03-21T16:08:24.752Z,28.59
2023-03-21T16:12:24.834Z,28.61
2023-03-21T16:16:24.958Z,28.63
2023-03-21T16:20:25.030Z,28.63
2023-03-21T16:24:25.107Z,28.62
2023-03-21T16:28:25.246Z,28.64
2023-03-21T16:32:25.383Z,28.67
2023-03-21T16:36:25.446Z,28.66
2023-03-21T16:40:25.615Z,28.69
2023-03-21T16:44:25.751Z,28.66
2023-03-21T16:48:25.929Z,28.70
2023-03-21T16:52:26.505Z,28.71
2023-03-21T16:56:26.138Z,28.73
2023-03-21T17:00:26.289Z,28.75
2023-03-21T17:04:26.519Z,28.75
2023-03-21T17:08:26.642Z,28.77
2023-03-21T17:12:26.794Z,28.78
2023-03-21T17:16:27.455Z,28.79
2023-03-21T17:20:27.171Z,28.82
2023-03-21T17:24:27.315Z,28.86
2023-03-21T17:28:27.494Z,28.89
2023-03-21T17:32:27.644Z,28.90
2023-03-21T17:36:27.878Z,28.95
2023-03-21T17:40:28.040Z,28.98
2023-03-21T17:44:28.240Z,29.02
2023-03-21T17:48:28.432Z,29.04
2023-03-21T17:52:28.634Z,29.09
2023-03-21T17:56:28.855Z,29.10
2023-03-21T18:00:29.100Z,29.14
2023-03-21T18:04:29.351Z,29.18
2023-03-21T18:08:29.731Z,29.22
2023-03-21T18:12:29.767Z,29.26
2023-03-21T18:16:29.694Z,29.26
2023-03-21T18:20:50.330Z,29.27
2023-03-21T18:24:30.584Z,29.32
2023-03-21T18:28:29.898Z,29.35
2023-03-21T18:32:29.783Z,29.35
2023-03-21T18:36:29.809Z,29.38
2023-03-21T18:40:29.716Z,29.41
2023-03-21T18:44:29.641Z,29.42
2023-03-21T18:48:31.057Z,29.45
2023-03-21T18:52:29.641Z,29.48
2023-03-21T19:00:30.676Z,29.53
2023-03-21T19:04:30.504Z,29.62
2023-03-21T19:08:29.586Z,29.97
2023-03-21T19:12:29.475Z,29.91
2023-03-21T19:16:32.709Z,29.87
2023-03-21T19:20:30.392Z,29.84
2023-03-21T19:24:29.513Z,29.79
2023-03-21T19:28:29.465Z,29.83
2023-03-21T19:32:29.415Z,29.83
2023-03-21T19:36:29.375Z,29.83
2023-03-21T19:40:29.342Z,29.83
2023-03-21T19:44:29.328Z,29.85
2023-03-21T19:48:29.365Z,29.83
2023-03-21T19:52:29.217Z,29.90
2023-03-21T19:56:31.384Z,29.95
2023-03-21T20:00:29.129Z,30.02
2023-03-21T20:04:29.107Z,30.15
2023-03-21T20:08:36.091Z,30.26
2023-03-21T20:12:30.081Z,30.28
2023-03-21T20:16:34.520Z,30.28
2023-03-21T20:20:29.974Z,30.33
2023-03-21T20:24:28.986Z,30.34
2023-03-21T20:28:29.239Z,30.34
2023-03-21T20:32:29.373Z,30.30
2023-03-21T20:36:39.760Z,30.31
2023-03-21T20:40:30.529Z,30.29
2023-03-21T20:44:59.101Z,30.29
2023-03-21T20:48:30.483Z,30.26
2023-03-21T20:56:30.388Z,30.17
2023-03-21T21:00:29.399Z,30.12
2023-03-21T21:05:03.506Z,30.10
2023-03-21T21:08:30.309Z,30.10
2023-03-21T21:12:29.282Z,30.09
2023-03-21T21:16:29.307Z,30.07
2023-03-21T21:20:29.190Z,30.07
2023-03-21T21:24:29.190Z,30.07
2023-03-21T21:28:29.129Z,30.04
2023-03-21T21:32:29.088Z,30.04
2023-03-21T21:36:29.075Z,30.03
2023-03-21T21:40:29.074Z,30.03
2023-03-21T21:44:29.079Z,30.01
2023-03-21T21:48:29.050Z,30.00
2023-03-21T21:52:29.008Z,29.98
2023-03-21T21:56:29.037Z,30.00
2023-03-21T22:00:29.032Z,29.99
2023-03-21T22:04:29.057Z,29.99
2023-03-21T22:08:29.019Z,29.97
2023-03-21T22:12:29.060Z,29.96
2023-03-21T22:16:29.122Z,29.95
2023-03-21T22:20:29.164Z,29.98
2023-03-21T22:24:29.131Z,29.95
2023-03-21T22:28:29.137Z,29.97
2023-03-21T22:32:29.195Z,29.96
2023-03-21T22:36:29.227Z,29.96
2023-03-21T22:40:29.305Z,30.02
2023-03-21T22:44:36.091Z,30.02
2023-03-21T22:48:29.297Z,30.01
2023-03-21T22:52:29.221Z,30.01
2023-03-21T22:56:29.205Z,30.03
2023-03-21T23:00:29.131Z,30.01
2023-03-21T23:04:29.141Z,30.02
2023-03-21T23:08:29.043Z,30.02
2023-03-21T23:12:29.046Z,30.02
2023-03-21T23:16:29.032Z,29.98
2023-03-21T23:20:28.993Z,30.00
2023-03-21T23:24:28.921Z,30.01
2023-03-21T23:28:28.870Z,30.01
2023-03-21T23:32:28.878Z,30.00
2023-03-21T23:36:28.820Z,29.98
2023-03-21T23:40:28.819Z,29.99
2023-03-21T23:44:28.798Z,30.00
2023-03-21T23:48:28.748Z,30.01
2023-03-21T23:52:28.770Z,30.01
2023-03-21T23:56:28.710Z,30.01
